Beit Lahm, Israel
Current Conditions -  °F | °C
As of 7:20 PM on Sunday 25 Jan 2015 (Local Time) from LLBG Reporting Station
Clear Clear  
Wind Chill: 63°   Ceiling: Unl
Heat Index: 63°   Visibility: 4mi
Dew Point: 57°   Wind: 1mph
Humidity: 82%   Direction: NA
Pressure: 30.03"   Gusts: NA
Location:  31.72°N, 35.2°E
Report Text: LLBG 251620Z VRB01KT 6000 NSC 17/14 Q1017 NOSIG
Loading
Personal Weather Stations






























Interactive Weather Map New forecast layout! Learn more

10-Day Weather Forecast

Advertisements
Track Severe Weather on mobile